Huvudsida
METAR-TAF:

METAR-TAF

Flygplatser :

Honiara International Airport

Honiara, Guadalcanal, Salomonöarna

latitud: 09-25S, longitud: 160-03E, höjd: 8 m

Aktuellt väderrapport

Denna rapport gjordes för 40 minuter sedan, klockan 17:00 UTC
Vind 4 kt från väst/sydväst
Temperatur 24°C
Fuktighet 94%
Tryck 1008 hPa
Sikt 10 km eller mer
Få moln på en höjd av 1500 ft

METAR: AGGH 221700Z 24004KT 9999 FEW015 24/23 Q1008

Tid: 04:40 (17:40 UTC)

Väderprognos

Denna rapport gjordes för 6 timmar och 20 minuter sedan, klockan 11:20 UTC
Prognos gäller från 22 kl. 12 UTC till 23 kl. 12 UTC
Vind 10 kt från ost
Sikt: 1010 m
Få moln på en höjd av 1600 ft
Brutna moln på en höjd av 10000 ft
(lätt) skurar, duggregn

TAF: AGGH 221120Z 2212/2312 09010KT 9999 -SHDZ FEW016 BKN100 T 25 24 23 26 Q 1011 1009 1008 1010

Aktuella väderrapporter och prognoser från 4000 flygplatser (METAR- och TAF-rapporter).

De tillgängliga stationerna syns som gula och röda prickar på kartan.

För musen över prickarna för att se namnen på stationerna.

Klicka sedan för att få väderrapporter och prognoser.

För att ändra kartan: Klicka på de gröna knapparna med ett svart kors på för att zooma in; den gröna knappen med ett streck på för att zooma ut; eller på de gröna pilarna för angränsande kartor.


METAR-TAF: